sensor_id;sensor_type;location;lat;lon;timestamp;temperature;humidity
9810;DHT22;4944;52.514;13.192;2023-09-18T00:01:00;23.10;99.90
9810;DHT22;4944;52.514;13.192;2023-09-18T00:03:27;23.10;99.90
9810;DHT22;4944;52.514;13.192;2023-09-18T00:05:53;23.10;99.90
9810;DHT22;4944;52.514;13.192;2023-09-18T00:08:20;23.10;99.90
9810;DHT22;4944;52.514;13.192;2023-09-18T00:10:49;23.10;99.90
9810;DHT22;4944;52.514;13.192;2023-09-18T00:13:17;23.00;99.90
9810;DHT22;4944;52.514;13.192;2023-09-18T00:15:44;23.00;99.90
9810;DHT22;4944;52.514;13.192;2023-09-18T00:18:13;23.00;99.90
9810;DHT22;4944;52.514;13.192;2023-09-18T00:20:40;23.00;99.90
9810;DHT22;4944;52.514;13.192;2023-09-18T00:23:08;23.00;99.90
9810;DHT22;4944;52.514;13.192;2023-09-18T00:25:35;23.00;99.90
9810;DHT22;4944;52.514;13.192;2023-09-18T00:28:03;23.00;99.90
9810;DHT22;4944;52.514;13.192;2023-09-18T00:30:31;22.90;99.90
9810;DHT22;4944;52.514;13.192;2023-09-18T00:32:58;22.90;99.90
9810;DHT22;4944;52.514;13.192;2023-09-18T00:35:25;22.90;99.90
9810;DHT22;4944;52.514;13.192;2023-09-18T00:37:52;22.90;99.90
9810;DHT22;4944;52.514;13.192;2023-09-18T00:40:19;22.90;99.90
9810;DHT22;4944;52.514;13.192;2023-09-18T00:42:46;22.80;99.90
9810;DHT22;4944;52.514;13.192;2023-09-18T00:45:13;22.80;99.90
9810;DHT22;4944;52.514;13.192;2023-09-18T00:47:41;22.80;99.90
9810;DHT22;4944;52.514;13.192;2023-09-18T00:50:10;22.80;99.90
9810;DHT22;4944;52.514;13.192;2023-09-18T00:52:38;22.70;99.90
9810;DHT22;4944;52.514;13.192;2023-09-18T00:55:07;22.70;99.90
9810;DHT22;4944;52.514;13.192;2023-09-18T00:57:35;22.70;99.90
9810;DHT22;4944;52.514;13.192;2023-09-18T01:00:02;22.70;99.90
9810;DHT22;4944;52.514;13.192;2023-09-18T01:02:31;22.60;99.90
9810;DHT22;4944;52.514;13.192;2023-09-18T01:04:59;22.60;99.90
9810;DHT22;4944;52.514;13.192;2023-09-18T01:07:26;22.60;99.90
9810;DHT22;4944;52.514;13.192;2023-09-18T01:09:54;22.60;99.90
9810;DHT22;4944;52.514;13.192;2023-09-18T01:12:25;22.50;99.90
9810;DHT22;4944;52.514;13.192;2023-09-18T01:14:59;22.50;99.90
9810;DHT22;4944;52.514;13.192;2023-09-18T01:17:28;22.50;99.90
9810;DHT22;4944;52.514;13.192;2023-09-18T01:19:55;22.50;99.90
9810;DHT22;4944;52.514;13.192;2023-09-18T01:22:24;22.50;99.90
9810;DHT22;4944;52.514;13.192;2023-09-18T01:24:52;22.40;99.90
9810;DHT22;4944;52.514;13.192;2023-09-18T01:27:19;22.40;99.90
9810;DHT22;4944;52.514;13.192;2023-09-18T01:29:46;22.40;99.90
9810;DHT22;4944;52.514;13.192;2023-09-18T01:32:15;22.40;99.90
9810;DHT22;4944;52.514;13.192;2023-09-18T01:34:46;22.40;99.90
9810;DHT22;4944;52.514;13.192;2023-09-18T01:37:15;22.40;99.90
9810;DHT22;4944;52.514;13.192;2023-09-18T01:39:45;22.30;99.90
9810;DHT22;4944;52.514;13.192;2023-09-18T01:42:14;22.30;99.90
9810;DHT22;4944;52.514;13.192;2023-09-18T01:44:41;22.30;99.90
9810;DHT22;4944;52.514;13.192;2023-09-18T01:47:11;22.30;99.90
9810;DHT22;4944;52.514;13.192;2023-09-18T01:49:39;22.30;99.90
9810;DHT22;4944;52.514;13.192;2023-09-18T01:52:09;22.30;99.90
9810;DHT22;4944;52.514;13.192;2023-09-18T01:54:36;22.20;99.90
9810;DHT22;4944;52.514;13.192;2023-09-18T01:57:04;22.20;99.90
9810;DHT22;4944;52.514;13.192;2023-09-18T01:59:34;22.20;99.90
9810;DHT22;4944;52.514;13.192;2023-09-18T02:02:02;22.20;99.90
9810;DHT22;4944;52.514;13.192;2023-09-18T02:04:29;22.20;99.90
9810;DHT22;4944;52.514;13.192;2023-09-18T02:06:56;22.10;99.90
9810;DHT22;4944;52.514;13.192;2023-09-18T02:09:23;22.10;99.90
9810;DHT22;4944;52.514;13.192;2023-09-18T02:11:50;22.10;99.90
9810;DHT22;4944;52.514;13.192;2023-09-18T02:14:17;22.10;99.90
9810;DHT22;4944;52.514;13.192;2023-09-18T02:16:45;22.10;99.90
9810;DHT22;4944;52.514;13.192;2023-09-18T02:19:13;22.10;99.90
9810;DHT22;4944;52.514;13.192;2023-09-18T02:21:40;22.00;99.90
9810;DHT22;4944;52.514;13.192;2023-09-18T02:24:07;22.00;99.90
9810;DHT22;4944;52.514;13.192;2023-09-18T02:26:35;22.00;99.90
9810;DHT22;4944;52.514;13.192;2023-09-18T02:29:04;22.00;99.90
9810;DHT22;4944;52.514;13.192;2023-09-18T02:31:31;21.90;99.90
9810;DHT22;4944;52.514;13.192;2023-09-18T02:33:59;21.90;99.90
9810;DHT22;4944;52.514;13.192;2023-09-18T02:36:26;21.90;99.90
9810;DHT22;4944;52.514;13.192;2023-09-18T02:38:53;21.90;99.90
9810;DHT22;4944;52.514;13.192;2023-09-18T02:41:20;22.00;99.90
9810;DHT22;4944;52.514;13.192;2023-09-18T02:43:46;22.00;99.90
9810;DHT22;4944;52.514;13.192;2023-09-18T02:46:13;22.00;99.90
9810;DHT22;4944;52.514;13.192;2023-09-18T02:48:40;22.00;99.90
9810;DHT22;4944;52.514;13.192;2023-09-18T02:51:08;21.90;99.90
9810;DHT22;4944;52.514;13.192;2023-09-18T02:53:35;21.90;99.90
9810;DHT22;4944;52.514;13.192;2023-09-18T02:56:02;21.90;99.90
9810;DHT22;4944;52.514;13.192;2023-09-18T02:58:29;21.90;99.90
9810;DHT22;4944;52.514;13.192;2023-09-18T03:00:57;21.90;99.90
9810;DHT22;4944;52.514;13.192;2023-09-18T03:03:25;21.80;99.90
9810;DHT22;4944;52.514;13.192;2023-09-18T03:05:52;21.80;99.90
9810;DHT22;4944;52.514;13.192;2023-09-18T03:08:20;21.80;99.90
9810;DHT22;4944;52.514;13.192;2023-09-18T03:10:47;21.80;99.90
9810;DHT22;4944;52.514;13.192;2023-09-18T03:13:15;21.60;99.90
9810;DHT22;4944;52.514;13.192;2023-09-18T03:15:45;21.60;99.90
9810;DHT22;4944;52.514;13.192;2023-09-18T03:18:13;21.60;99.90
9810;DHT22;4944;52.514;13.192;2023-09-18T03:20:40;21.60;99.90
9810;DHT22;4944;52.514;13.192;2023-09-18T03:23:07;21.50;99.90
9810;DHT22;4944;52.514;13.192;2023-09-18T03:25:35;21.50;99.90
9810;DHT22;4944;52.514;13.192;2023-09-18T03:28:03;21.60;99.90
9810;DHT22;4944;52.514;13.192;2023-09-18T03:30:30;21.60;99.90
9810;DHT22;4944;52.514;13.192;2023-09-18T03:32:57;21.50;99.90
9810;DHT22;4944;52.514;13.192;2023-09-18T03:35:24;21.50;99.90
9810;DHT22;4944;52.514;13.192;2023-09-18T03:37:52;21.50;99.90
9810;DHT22;4944;52.514;13.192;2023-09-18T03:40:20;21.50;99.90
9810;DHT22;4944;52.514;13.192;2023-09-18T03:42:49;21.50;99.90
9810;DHT22;4944;52.514;13.192;2023-09-18T03:45:16;21.50;99.90
9810;DHT22;4944;52.514;13.192;2023-09-18T03:47:45;21.50;99.90
9810;DHT22;4944;52.514;13.192;2023-09-18T03:50:13;21.50;99.90
9810;DHT22;4944;52.514;13.192;2023-09-18T03:52:40;21.40;99.90
9810;DHT22;4944;52.514;13.192;2023-09-18T03:55:07;21.40;99.90
9810;DHT22;4944;52.514;13.192;2023-09-18T03:57:35;21.40;99.90
9810;DHT22;4944;52.514;13.192;2023-09-18T04:00:04;21.40;99.90
9810;DHT22;4944;52.514;13.192;2023-09-18T04:02:33;21.40;99.90
9810;DHT22;4944;52.514;13.192;2023-09-18T04:05:00;21.40;99.90
9810;DHT22;4944;52.514;13.192;2023-09-18T04:07:28;21.40;99.90
9810;DHT22;4944;52.514;13.192;2023-09-18T04:09:55;21.40;99.90
9810;DHT22;4944;52.514;13.192;2023-09-18T04:12:22;21.40;99.90
9810;DHT22;4944;52.514;13.192;2023-09-18T04:14:49;21.30;99.90
9810;DHT22;4944;52.514;13.192;2023-09-18T04:17:18;21.30;99.90
9810;DHT22;4944;52.514;13.192;2023-09-18T04:19:46;21.30;99.90
9810;DHT22;4944;52.514;13.192;2023-09-18T04:22:14;21.30;99.90
9810;DHT22;4944;52.514;13.192;2023-09-18T04:24:41;21.20;99.90
9810;DHT22;4944;52.514;13.192;2023-09-18T04:27:08;21.20;99.90
9810;DHT22;4944;52.514;13.192;2023-09-18T04:29:35;21.20;99.90
9810;DHT22;4944;52.514;13.192;2023-09-18T04:32:03;21.20;99.90
9810;DHT22;4944;52.514;13.192;2023-09-18T04:34:32;21.10;99.90
9810;DHT22;4944;52.514;13.192;2023-09-18T04:37:00;21.10;99.90
9810;DHT22;4944;52.514;13.192;2023-09-18T04:39:29;21.00;99.90
9810;DHT22;4944;52.514;13.192;2023-09-18T04:42:00;21.00;99.90
9810;DHT22;4944;52.514;13.192;2023-09-18T04:44:29;21.00;99.90
9810;DHT22;4944;52.514;13.192;2023-09-18T04:46:56;21.00;99.90
9810;DHT22;4944;52.514;13.192;2023-09-18T04:49:25;21.00;99.90
9810;DHT22;4944;52.514;13.192;2023-09-18T04:51:53;20.90;99.90
9810;DHT22;4944;52.514;13.192;2023-09-18T04:54:22;20.90;99.90
9810;DHT22;4944;52.514;13.192;2023-09-18T04:56:48;20.90;99.90
9810;DHT22;4944;52.514;13.192;2023-09-18T04:59:15;20.90;99.90
9810;DHT22;4944;52.514;13.192;2023-09-18T05:01:42;20.80;99.90
9810;DHT22;4944;52.514;13.192;2023-09-18T05:04:09;20.80;99.90
9810;DHT22;4944;52.514;13.192;2023-09-18T05:06:36;20.80;99.90
9810;DHT22;4944;52.514;13.192;2023-09-18T05:09:05;20.80;99.90
9810;DHT22;4944;52.514;13.192;2023-09-18T05:11:33;20.70;99.90
9810;DHT22;4944;52.514;13.192;2023-09-18T05:14:00;20.80;99.90
9810;DHT22;4944;52.514;13.192;2023-09-18T05:16:26;20.80;99.90
9810;DHT22;4944;52.514;13.192;2023-09-18T05:18:54;20.70;99.90
9810;DHT22;4944;52.514;13.192;2023-09-18T05:21:20;20.80;99.90
9810;DHT22;4944;52.514;13.192;2023-09-18T05:23:50;20.80;99.90
9810;DHT22;4944;52.514;13.192;2023-09-18T05:26:19;20.90;99.90
9810;DHT22;4944;52.514;13.192;2023-09-18T05:28:48;20.90;99.90
9810;DHT22;4944;52.514;13.192;2023-09-18T05:31:15;20.90;99.90
9810;DHT22;4944;52.514;13.192;2023-09-18T05:33:42;20.90;99.90
9810;DHT22;4944;52.514;13.192;2023-09-18T05:36:09;21.00;99.90
9810;DHT22;4944;52.514;13.192;2023-09-18T05:38:36;20.90;99.90
9810;DHT22;4944;52.514;13.192;2023-09-18T05:41:05;20.90;99.90
9810;DHT22;4944;52.514;13.192;2023-09-18T05:43:34;20.90;99.90
9810;DHT22;4944;52.514;13.192;2023-09-18T05:46:01;21.00;99.90
9810;DHT22;4944;52.514;13.192;2023-09-18T05:48:28;20.90;99.90
9810;DHT22;4944;52.514;13.192;2023-09-18T05:50:55;20.90;99.90
9810;DHT22;4944;52.514;13.192;2023-09-18T05:53:22;20.90;99.90
9810;DHT22;4944;52.514;13.192;2023-09-18T05:55:49;20.90;99.90
9810;DHT22;4944;52.514;13.192;2023-09-18T05:58:16;21.00;99.90
9810;DHT22;4944;52.514;13.192;2023-09-18T06:00:46;20.90;99.90
9810;DHT22;4944;52.514;13.192;2023-09-18T06:03:14;20.80;99.90
9810;DHT22;4944;52.514;13.192;2023-09-18T06:05:44;20.80;99.90
9810;DHT22;4944;52.514;13.192;2023-09-18T06:08:12;20.80;99.90
9810;DHT22;4944;52.514;13.192;2023-09-18T06:10:39;20.80;99.90
9810;DHT22;4944;52.514;13.192;2023-09-18T06:13:06;20.80;99.90
9810;DHT22;4944;52.514;13.192;2023-09-18T06:15:33;20.70;99.90
9810;DHT22;4944;52.514;13.192;2023-09-18T06:18:01;20.50;99.90
9810;DHT22;4944;52.514;13.192;2023-09-18T06:20:29;20.40;99.90
9810;DHT22;4944;52.514;13.192;2023-09-18T06:22:56;20.50;99.90
9810;DHT22;4944;52.514;13.192;2023-09-18T06:25:23;20.60;99.90
9810;DHT22;4944;52.514;13.192;2023-09-18T06:27:50;20.70;99.90
9810;DHT22;4944;52.514;13.192;2023-09-18T06:30:17;20.80;99.90
9810;DHT22;4944;52.514;13.192;2023-09-18T06:32:44;20.90;99.90
9810;DHT22;4944;52.514;13.192;2023-09-18T06:35:12;20.90;99.90
9810;DHT22;4944;52.514;13.192;2023-09-18T06:37:39;21.00;99.90
9810;DHT22;4944;52.514;13.192;2023-09-18T06:40:07;21.00;99.90
9810;DHT22;4944;52.514;13.192;2023-09-18T06:42:34;21.10;99.90
9810;DHT22;4944;52.514;13.192;2023-09-18T06:45:01;21.10;99.90
9810;DHT22;4944;52.514;13.192;2023-09-18T06:47:28;21.10;99.90
9810;DHT22;4944;52.514;13.192;2023-09-18T06:49:55;21.10;99.90
9810;DHT22;4944;52.514;13.192;2023-09-18T06:52:23;21.20;99.90
9810;DHT22;4944;52.514;13.192;2023-09-18T06:54:52;21.20;99.90
9810;DHT22;4944;52.514;13.192;2023-09-18T06:57:19;21.30;99.90
9810;DHT22;4944;52.514;13.192;2023-09-18T06:59:46;21.40;99.90
9810;DHT22;4944;52.514;13.192;2023-09-18T07:02:13;21.40;99.90
9810;DHT22;4944;52.514;13.192;2023-09-18T07:04:41;21.50;99.90
9810;DHT22;4944;52.514;13.192;2023-09-18T07:07:11;21.50;99.90
9810;DHT22;4944;52.514;13.192;2023-09-18T07:09:40;21.60;99.90
9810;DHT22;4944;52.514;13.192;2023-09-18T07:12:08;21.60;99.90
9810;DHT22;4944;52.514;13.192;2023-09-18T07:14:35;21.60;99.90
9810;DHT22;4944;52.514;13.192;2023-09-18T07:17:03;21.70;99.90
9810;DHT22;4944;52.514;13.192;2023-09-18T07:19:30;21.80;99.90
9810;DHT22;4944;52.514;13.192;2023-09-18T07:21:58;21.80;99.90
9810;DHT22;4944;52.514;13.192;2023-09-18T07:24:25;21.90;99.90
9810;DHT22;4944;52.514;13.192;2023-09-18T07:26:53;22.00;99.90
9810;DHT22;4944;52.514;13.192;2023-09-18T07:29:20;22.10;99.90
9810;DHT22;4944;52.514;13.192;2023-09-18T07:31:48;22.10;99.90
9810;DHT22;4944;52.514;13.192;2023-09-18T07:34:14;22.20;99.90
9810;DHT22;4944;52.514;13.192;2023-09-18T07:36:43;22.30;99.90
9810;DHT22;4944;52.514;13.192;2023-09-18T07:39:11;22.40;99.90
9810;DHT22;4944;52.514;13.192;2023-09-18T07:41:38;22.50;99.90
9810;DHT22;4944;52.514;13.192;2023-09-18T07:44:06;22.50;99.90
9810;DHT22;4944;52.514;13.192;2023-09-18T07:46:33;22.60;99.90
9810;DHT22;4944;52.514;13.192;2023-09-18T07:49:01;22.60;99.90
9810;DHT22;4944;52.514;13.192;2023-09-18T07:51:28;22.70;99.90
9810;DHT22;4944;52.514;13.192;2023-09-18T07:53:55;22.70;99.90
9810;DHT22;4944;52.514;13.192;2023-09-18T07:56:22;22.80;99.90
9810;DHT22;4944;52.514;13.192;2023-09-18T07:58:49;22.90;99.90
9810;DHT22;4944;52.514;13.192;2023-09-18T08:01:17;22.90;99.90
9810;DHT22;4944;52.514;13.192;2023-09-18T08:03:48;23.00;99.90
9810;DHT22;4944;52.514;13.192;2023-09-18T08:06:14;23.10;99.90
9810;DHT22;4944;52.514;13.192;2023-09-18T08:08:44;23.10;99.90
9810;DHT22;4944;52.514;13.192;2023-09-18T08:11:12;23.20;99.90
9810;DHT22;4944;52.514;13.192;2023-09-18T08:13:39;23.30;99.90
9810;DHT22;4944;52.514;13.192;2023-09-18T08:16:06;23.40;99.90
9810;DHT22;4944;52.514;13.192;2023-09-18T08:18:35;23.40;99.90
9810;DHT22;4944;52.514;13.192;2023-09-18T08:21:06;23.50;99.90
9810;DHT22;4944;52.514;13.192;2023-09-18T08:23:34;23.60;99.90
9810;DHT22;4944;52.514;13.192;2023-09-18T08:26:01;23.60;99.90
9810;DHT22;4944;52.514;13.192;2023-09-18T08:28:29;23.70;99.90
9810;DHT22;4944;52.514;13.192;2023-09-18T08:30:56;23.80;99.90
9810;DHT22;4944;52.514;13.192;2023-09-18T08:33:24;23.80;99.90
9810;DHT22;4944;52.514;13.192;2023-09-18T08:35:52;23.90;99.90
9810;DHT22;4944;52.514;13.192;2023-09-18T08:38:20;24.00;99.90
9810;DHT22;4944;52.514;13.192;2023-09-18T08:40:47;24.00;99.90
9810;DHT22;4944;52.514;13.192;2023-09-18T08:43:15;24.10;99.90
9810;DHT22;4944;52.514;13.192;2023-09-18T08:45:46;24.20;99.90
9810;DHT22;4944;52.514;13.192;2023-09-18T08:48:17;24.30;99.90
9810;DHT22;4944;52.514;13.192;2023-09-18T08:50:45;24.40;99.90
9810;DHT22;4944;52.514;13.192;2023-09-18T08:53:13;24.50;99.90
9810;DHT22;4944;52.514;13.192;2023-09-18T08:55:41;24.60;99.90
9810;DHT22;4944;52.514;13.192;2023-09-18T08:58:08;24.70;99.90
9810;DHT22;4944;52.514;13.192;2023-09-18T09:00:37;24.80;99.90
9810;DHT22;4944;52.514;13.192;2023-09-18T09:03:04;24.90;99.90
9810;DHT22;4944;52.514;13.192;2023-09-18T09:05:31;24.90;99.90
9810;DHT22;4944;52.514;13.192;2023-09-18T09:07:58;25.00;99.90
9810;DHT22;4944;52.514;13.192;2023-09-18T09:10:27;25.00;99.90
9810;DHT22;4944;52.514;13.192;2023-09-18T09:12:56;25.10;99.90
9810;DHT22;4944;52.514;13.192;2023-09-18T09:15:25;25.10;99.90
9810;DHT22;4944;52.514;13.192;2023-09-18T09:18:02;25.20;99.90
9810;DHT22;4944;52.514;13.192;2023-09-18T09:20:30;25.30;99.90
9810;DHT22;4944;52.514;13.192;2023-09-18T09:23:00;25.30;99.90
9810;DHT22;4944;52.514;13.192;2023-09-18T09:25:31;25.20;99.90
9810;DHT22;4944;52.514;13.192;2023-09-18T09:28:00;25.30;99.90
9810;DHT22;4944;52.514;13.192;2023-09-18T09:30:29;25.30;99.90
9810;DHT22;4944;52.514;13.192;2023-09-18T09:32:56;25.40;99.90
9810;DHT22;4944;52.514;13.192;2023-09-18T09:35:28;25.40;99.90
9810;DHT22;4944;52.514;13.192;2023-09-18T09:37:57;25.40;99.90
9810;DHT22;4944;52.514;13.192;2023-09-18T09:40:26;25.50;99.90
9810;DHT22;4944;52.514;13.192;2023-09-18T09:42:56;25.50;99.90
9810;DHT22;4944;52.514;13.192;2023-09-18T09:45:28;25.50;99.90
9810;DHT22;4944;52.514;13.192;2023-09-18T09:48:03;25.50;99.90
9810;DHT22;4944;52.514;13.192;2023-09-18T09:50:31;25.50;99.90
9810;DHT22;4944;52.514;13.192;2023-09-18T09:52:59;25.50;99.90
9810;DHT22;4944;52.514;13.192;2023-09-18T09:55:27;25.50;99.90
9810;DHT22;4944;52.514;13.192;2023-09-18T09:57:57;25.40;99.90
9810;DHT22;4944;52.514;13.192;2023-09-18T10:00:30;25.40;99.90
9810;DHT22;4944;52.514;13.192;2023-09-18T10:03:00;25.40;99.90
9810;DHT22;4944;52.514;13.192;2023-09-18T10:05:30;25.40;99.90
9810;DHT22;4944;52.514;13.192;2023-09-18T10:07:59;25.40;99.90
9810;DHT22;4944;52.514;13.192;2023-09-18T10:10:32;25.40;99.90
9810;DHT22;4944;52.514;13.192;2023-09-18T10:13:05;25.50;99.90
9810;DHT22;4944;52.514;13.192;2023-09-18T10:15:34;25.50;99.90
9810;DHT22;4944;52.514;13.192;2023-09-18T10:18:16;25.60;99.90
9810;DHT22;4944;52.514;13.192;2023-09-18T10:20:44;25.60;99.90
9810;DHT22;4944;52.514;13.192;2023-09-18T10:23:23;25.60;99.90
9810;DHT22;4944;52.514;13.192;2023-09-18T10:25:55;25.70;99.90
9810;DHT22;4944;52.514;13.192;2023-09-18T10:28:30;25.70;99.90
9810;DHT22;4944;52.514;13.192;2023-09-18T10:30:59;25.80;99.90
9810;DHT22;4944;52.514;13.192;2023-09-18T10:33:27;25.80;99.90
9810;DHT22;4944;52.514;13.192;2023-09-18T10:35:56;25.80;99.90
9810;DHT22;4944;52.514;13.192;2023-09-18T10:38:25;25.80;99.90
9810;DHT22;4944;52.514;13.192;2023-09-18T10:40:53;25.80;99.90
9810;DHT22;4944;52.514;13.192;2023-09-18T10:43:20;25.90;99.90
9810;DHT22;4944;52.514;13.192;2023-09-18T10:45:49;25.90;99.90
9810;DHT22;4944;52.514;13.192;2023-09-18T10:48:18;25.80;99.90
9810;DHT22;4944;52.514;13.192;2023-09-18T10:50:45;25.80;99.90
9810;DHT22;4944;52.514;13.192;2023-09-18T10:53:13;25.80;99.90
9810;DHT22;4944;52.514;13.192;2023-09-18T10:55:41;25.80;99.90
9810;DHT22;4944;52.514;13.192;2023-09-18T10:58:10;25.80;99.90
9810;DHT22;4944;52.514;13.192;2023-09-18T11:00:37;25.80;99.90
9810;DHT22;4944;52.514;13.192;2023-09-18T11:03:13;25.80;99.90
9810;DHT22;4944;52.514;13.192;2023-09-18T11:05:44;25.70;99.90
9810;DHT22;4944;52.514;13.192;2023-09-18T11:08:28;25.70;99.90
9810;DHT22;4944;52.514;13.192;2023-09-18T11:10:56;25.60;99.90
9810;DHT22;4944;52.514;13.192;2023-09-18T11:13:31;25.60;99.90
9810;DHT22;4944;52.514;13.192;2023-09-18T11:16:01;25.50;99.90
9810;DHT22;4944;52.514;13.192;2023-09-18T11:18:34;25.50;99.90
9810;DHT22;4944;52.514;13.192;2023-09-18T11:21:08;25.50;99.90
9810;DHT22;4944;52.514;13.192;2023-09-18T11:23:36;25.50;99.90
9810;DHT22;4944;52.514;13.192;2023-09-18T11:26:05;25.60;99.90
9810;DHT22;4944;52.514;13.192;2023-09-18T11:28:32;25.50;99.90
9810;DHT22;4944;52.514;13.192;2023-09-18T11:30:59;25.50;99.90
9810;DHT22;4944;52.514;13.192;2023-09-18T11:33:31;25.50;99.90
9810;DHT22;4944;52.514;13.192;2023-09-18T11:36:04;25.50;99.90
9810;DHT22;4944;52.514;13.192;2023-09-18T11:38:34;25.40;99.90
9810;DHT22;4944;52.514;13.192;2023-09-18T11:41:21;25.40;99.90
9810;DHT22;4944;52.514;13.192;2023-09-18T11:43:49;25.40;99.90
9810;DHT22;4944;52.514;13.192;2023-09-18T11:46:19;25.30;99.90
9810;DHT22;4944;52.514;13.192;2023-09-18T11:48:47;25.30;99.90
9810;DHT22;4944;52.514;13.192;2023-09-18T11:51:22;25.20;99.90
9810;DHT22;4944;52.514;13.192;2023-09-18T11:53:53;25.20;99.90
9810;DHT22;4944;52.514;13.192;2023-09-18T11:56:21;25.20;99.90
9810;DHT22;4944;52.514;13.192;2023-09-18T11:58:48;25.20;99.90
9810;DHT22;4944;52.514;13.192;2023-09-18T12:01:17;25.20;99.90
9810;DHT22;4944;52.514;13.192;2023-09-18T12:03:44;25.30;99.90
9810;DHT22;4944;52.514;13.192;2023-09-18T12:06:11;25.40;99.90
9810;DHT22;4944;52.514;13.192;2023-09-18T12:08:41;25.40;99.90
9810;DHT22;4944;52.514;13.192;2023-09-18T12:11:08;25.50;99.90
9810;DHT22;4944;52.514;13.192;2023-09-18T12:13:35;25.60;99.90
9810;DHT22;4944;52.514;13.192;2023-09-18T12:16:03;25.60;99.90
9810;DHT22;4944;52.514;13.192;2023-09-18T12:18:31;25.60;99.90
9810;DHT22;4944;52.514;13.192;2023-09-18T12:21:01;25.70;99.90
9810;DHT22;4944;52.514;13.192;2023-09-18T12:23:37;25.70;99.90
9810;DHT22;4944;52.514;13.192;2023-09-18T12:26:06;25.80;99.90
9810;DHT22;4944;52.514;13.192;2023-09-18T12:28:34;25.80;99.90
9810;DHT22;4944;52.514;13.192;2023-09-18T12:31:02;25.80;99.90
9810;DHT22;4944;52.514;13.192;2023-09-18T12:33:34;25.80;99.90
9810;DHT22;4944;52.514;13.192;2023-09-18T12:36:03;25.80;99.90
9810;DHT22;4944;52.514;13.192;2023-09-18T12:38:30;25.70;99.90
9810;DHT22;4944;52.514;13.192;2023-09-18T12:40:59;25.60;99.90
9810;DHT22;4944;52.514;13.192;2023-09-18T12:43:35;25.60;99.90
9810;DHT22;4944;52.514;13.192;2023-09-18T12:46:04;25.60;99.90
9810;DHT22;4944;52.514;13.192;2023-09-18T12:48:31;25.50;99.90
9810;DHT22;4944;52.514;13.192;2023-09-18T12:51:05;25.50;99.90
9810;DHT22;4944;52.514;13.192;2023-09-18T12:53:33;25.40;99.90
9810;DHT22;4944;52.514;13.192;2023-09-18T12:56:07;25.40;99.90
9810;DHT22;4944;52.514;13.192;2023-09-18T12:58:36;25.30;99.90
9810;DHT22;4944;52.514;13.192;2023-09-18T13:01:08;25.20;99.90
9810;DHT22;4944;52.514;13.192;2023-09-18T13:03:40;25.20;99.90
9810;DHT22;4944;52.514;13.192;2023-09-18T13:06:11;25.10;99.90
9810;DHT22;4944;52.514;13.192;2023-09-18T13:08:39;25.10;99.90
9810;DHT22;4944;52.514;13.192;2023-09-18T13:11:05;25.10;99.90
9810;DHT22;4944;52.514;13.192;2023-09-18T13:13:33;25.00;99.90
9810;DHT22;4944;52.514;13.192;2023-09-18T13:16:05;25.10;99.90
9810;DHT22;4944;52.514;13.192;2023-09-18T13:18:32;25.10;99.90
9810;DHT22;4944;52.514;13.192;2023-09-18T13:20:59;25.10;99.90
9810;DHT22;4944;52.514;13.192;2023-09-18T13:23:30;25.10;99.90
9810;DHT22;4944;52.514;13.192;2023-09-18T13:26:01;25.10;99.90
9810;DHT22;4944;52.514;13.192;2023-09-18T13:28:29;25.10;99.90
9810;DHT22;4944;52.514;13.192;2023-09-18T13:30:58;25.00;99.90
9810;DHT22;4944;52.514;13.192;2023-09-18T13:33:27;25.00;99.90
9810;DHT22;4944;52.514;13.192;2023-09-18T13:35:54;25.00;99.90
9810;DHT22;4944;52.514;13.192;2023-09-18T13:38:21;25.00;99.90
9810;DHT22;4944;52.514;13.192;2023-09-18T13:40:48;25.00;99.90
9810;DHT22;4944;52.514;13.192;2023-09-18T13:43:15;24.90;99.90
9810;DHT22;4944;52.514;13.192;2023-09-18T13:45:44;24.90;99.90
9810;DHT22;4944;52.514;13.192;2023-09-18T13:48:11;24.80;99.90
9810;DHT22;4944;52.514;13.192;2023-09-18T13:50:39;24.90;99.90
9810;DHT22;4944;52.514;13.192;2023-09-18T13:53:06;24.90;99.90
9810;DHT22;4944;52.514;13.192;2023-09-18T13:55:34;24.80;99.90
9810;DHT22;4944;52.514;13.192;2023-09-18T13:58:01;24.80;99.90
9810;DHT22;4944;52.514;13.192;2023-09-18T14:00:29;24.80;99.90
9810;DHT22;4944;52.514;13.192;2023-09-18T14:02:56;24.70;99.90
9810;DHT22;4944;52.514;13.192;2023-09-18T14:05:23;24.70;99.90
9810;DHT22;4944;52.514;13.192;2023-09-18T14:07:53;24.70;99.90
9810;DHT22;4944;52.514;13.192;2023-09-18T14:10:25;24.70;99.90
9810;DHT22;4944;52.514;13.192;2023-09-18T14:12:52;24.70;99.90
9810;DHT22;4944;52.514;13.192;2023-09-18T14:15:19;24.70;99.90
9810;DHT22;4944;52.514;13.192;2023-09-18T14:17:46;24.70;99.90
9810;DHT22;4944;52.514;13.192;2023-09-18T14:20:13;24.70;99.90
9810;DHT22;4944;52.514;13.192;2023-09-18T14:22:43;24.60;99.90
9810;DHT22;4944;52.514;13.192;2023-09-18T14:25:12;24.70;99.90
9810;DHT22;4944;52.514;13.192;2023-09-18T14:27:39;24.60;99.90
9810;DHT22;4944;52.514;13.192;2023-09-18T14:30:07;24.50;99.90
9810;DHT22;4944;52.514;13.192;2023-09-18T14:32:35;24.50;99.90
9810;DHT22;4944;52.514;13.192;2023-09-18T14:35:02;24.40;99.90
9810;DHT22;4944;52.514;13.192;2023-09-18T14:37:31;24.40;99.90
9810;DHT22;4944;52.514;13.192;2023-09-18T14:39:58;24.40;99.90
9810;DHT22;4944;52.514;13.192;2023-09-18T14:42:26;24.40;99.90
9810;DHT22;4944;52.514;13.192;2023-09-18T14:44:53;24.30;99.90
9810;DHT22;4944;52.514;13.192;2023-09-18T14:47:20;24.40;99.90
9810;DHT22;4944;52.514;13.192;2023-09-18T14:49:46;24.40;99.90
9810;DHT22;4944;52.514;13.192;2023-09-18T14:52:14;24.30;99.90
9810;DHT22;4944;52.514;13.192;2023-09-18T14:54:41;24.20;99.90
9810;DHT22;4944;52.514;13.192;2023-09-18T14:57:08;24.30;99.90
9810;DHT22;4944;52.514;13.192;2023-09-18T14:59:37;24.20;99.90
9810;DHT22;4944;52.514;13.192;2023-09-18T15:02:04;24.20;99.90
9810;DHT22;4944;52.514;13.192;2023-09-18T15:04:32;24.20;99.90
9810;DHT22;4944;52.514;13.192;2023-09-18T15:07:00;24.20;99.90
9810;DHT22;4944;52.514;13.192;2023-09-18T15:09:27;24.20;99.90
9810;DHT22;4944;52.514;13.192;2023-09-18T15:11:53;24.10;99.90
9810;DHT22;4944;52.514;13.192;2023-09-18T15:14:20;24.10;99.90
9810;DHT22;4944;52.514;13.192;2023-09-18T15:16:49;24.10;99.90
9810;DHT22;4944;52.514;13.192;2023-09-18T15:19:16;24.10;99.90
9810;DHT22;4944;52.514;13.192;2023-09-18T15:21:43;24.10;99.90
9810;DHT22;4944;52.514;13.192;2023-09-18T15:24:10;24.00;99.90
9810;DHT22;4944;52.514;13.192;2023-09-18T15:26:36;24.10;99.90
9810;DHT22;4944;52.514;13.192;2023-09-18T15:29:03;24.10;99.90
9810;DHT22;4944;52.514;13.192;2023-09-18T15:31:30;24.00;99.90
9810;DHT22;4944;52.514;13.192;2023-09-18T15:33:59;24.00;99.90
9810;DHT22;4944;52.514;13.192;2023-09-18T15:36:25;24.00;99.90
9810;DHT22;4944;52.514;13.192;2023-09-18T15:38:52;23.90;99.90
9810;DHT22;4944;52.514;13.192;2023-09-18T15:41:20;23.90;99.90
9810;DHT22;4944;52.514;13.192;2023-09-18T15:43:47;23.80;99.90
9810;DHT22;4944;52.514;13.192;2023-09-18T15:46:15;23.80;99.90
9810;DHT22;4944;52.514;13.192;2023-09-18T15:53:55;23.70;99.90
9810;DHT22;4944;52.514;13.192;2023-09-18T15:56:22;23.70;99.90